Plymouth, MN

6:56 AM CDT on September 02, 2015 (GMT -0500)
Rosemary Woods | | Change Station
CLOSE
Current Station
Personal Weather Station
Location: Maple Grove, MN
Elevation: 965 ft
Nearby Weather Stations

Elev 965 ft 45.07 °N, 93.48 °W | Updated 1 minute ago

Rain
Rain
68.7 °F
Feels Like 68.7 °F
N
0.0
Wind Variable Wind from East
Gusts 0.0 mph

Today
High -- | Low -- °F
--% Chance of Precip.
Yesterday
High -- | Low -- °F
Precip. -- in
6:36 AM 7:49 PM
Waning Gibbous, 81% visible
Pressure 29.88 in
Visibility 5.0 miles
Clouds Scattered Clouds 12000 ft
Dew Point 68 °F
Humidity 98%
Rainfall 0.65 in
Snow Depth Not available.
UV 0.0 out of 12
Pollen 9.20 out of 12
Air Quality Not available.
Flu Activity Not available.
METAR KMIC 021153Z 08005KT 5SM BR SCT120 22/20 A2990 RMK AO2 RAE15 SLP119 P0001 60050 70050 T02170200 10261 20211 55003
Pressure 29.88 in
Visibility 5.0 miles
Clouds Scattered Clouds 12000 ft
Dew Point 68 °F
Humidity 98%
Rainfall 0.65 in
Snow Depth Not available.
UV 0.0 out of 12
Pollen 9.20 out of 12
Air Quality Not available.
Flu Activity Not available.
METAR KMIC 021153Z 08005KT 5SM BR SCT120 22/20 A2990 RMK AO2 RAE15 SLP119 P0001 60050 70050 T02170200 10261 20211 55003

10-Day Weather Forecast

×

Almanac

Astronomy

Sep. 02, 2015 Rise Set
Actual Time
Civil Twilight
Nautical Twilight
Astronomical Twilight
Moon
Length of Visible Light
Length of Day
Tomorrow will be .
, % of the Moon is Illuminated

Today's Extremes

State Highs State Lows

Community

WunderPhotos

Upload Photos

1,851,736 photos uploaded!

WunderBlogs® & News

Nearby

Air Quality

  Air Quality AQ Index Pollutant
Not available.

Snow Depth

Station Depth Elevation

Earthquake Activity

City Distance Mag. Time & Date
Minimum magnitude displayed is 2.5.

Coastal Water Temperatures

Place Temperature

Stations

Nearby Weather Stations

Station Location Temp. Windchill Dew Point Humidity Wind Precip. Elev Updated Type